Time;durP1;ratioP1;P1;durP2;ratioP2;P2;SDS_P1;SDS_P2;PMS_P1;PMS_P2;Temp;Humidity;BMP_temperature;BMP_pressure;BME280_temperature;BME280_humidity;BME280_pressure;Samples;Min_cycle;Max_cycle;Signal;HPM_P1;HPM_P2
2022/10/23 00:00:30;;;;;;;;;;;11.30;99.90;;;;;;5062376;28;19984;-73
2022/10/23 00:02:55;;;;;;;;;;;11.40;99.90;;;;;;5057361;28;19916;-73
2022/10/23 00:05:21;;;;;;;;;;;11.30;99.90;;;;;;5057251;28;19927;-73
2022/10/23 00:07:51;;;;;;;;;;;11.30;99.90;;;;;;5074130;28;19919;-73
2022/10/23 00:10:16;;;;;;;;;;;11.30;99.90;;;;;;5043993;28;19920;-73
2022/10/23 00:12:42;;;;;;;;;;;11.30;99.90;;;;;;5060110;28;20322;-73
2022/10/23 00:15:08;;;;;;;;;;;11.30;99.90;;;;;;5055992;28;19916;-73
2022/10/23 00:17:34;;;;;;;;;;;11.30;99.90;;;;;;5078893;28;19916;-73
2022/10/23 00:19:59;;;;;;;;;;;11.30;99.90;;;;;;5055034;28;19916;-73
2022/10/23 00:22:25;;;;;;;;;;;11.30;99.90;;;;;;5061330;28;19916;-73
2022/10/23 00:24:51;;;;;;;;;;;11.30;99.90;;;;;;5063980;28;19924;-73
2022/10/23 00:27:17;;;;;;;;;;;11.30;99.90;;;;;;5047510;28;20000;-73
2022/10/23 00:29:45;;;;;;;;;;;11.30;99.90;;;;;;5061061;28;19931;-73
2022/10/23 00:32:11;;;;;;;;;;;11.30;99.90;;;;;;5064852;28;20424;-74
2022/10/23 00:34:37;;;;;;;;;;;11.30;99.90;;;;;;5065991;28;19975;-74
2022/10/23 00:37:03;;;;;;;;;;;11.30;99.90;;;;;;5067200;28;19951;-74
2022/10/23 00:39:29;;;;;;;;;;;11.30;99.90;;;;;;5053683;28;20303;-74
2022/10/23 00:41:58;;;;;;;;;;;11.30;99.90;;;;;;5038513;28;19920;-73
2022/10/23 00:44:30;;;;;;;;;;;11.30;99.90;;;;;;5020743;28;20610;-73
2022/10/23 00:46:57;;;;;;;;;;;11.20;99.90;;;;;;5050655;28;19939;-73
2022/10/23 00:49:24;;;;;;;;;;;11.30;99.90;;;;;;5052662;28;20488;-74
2022/10/23 00:51:56;;;;;;;;;;;11.20;99.90;;;;;;5053573;28;19920;-74
2022/10/23 00:54:24;;;;;;;;;;;11.20;99.90;;;;;;5048163;28;19921;-73
2022/10/23 00:56:50;;;;;;;;;;;11.20;99.90;;;;;;5036931;28;20035;-73
2022/10/23 00:59:16;;;;;;;;;;;11.20;99.90;;;;;;5052567;28;19920;-73
2022/10/23 01:01:42;;;;;;;;;;;11.20;99.90;;;;;;5047682;28;20497;-73
2022/10/23 01:04:12;;;;;;;;;;;11.10;99.90;;;;;;5066071;28;20099;-73
2022/10/23 01:06:44;;;;;;;;;;;11.20;99.90;;;;;;5050642;28;20178;-73
2022/10/23 01:09:31;;;;;;;;;;;11.10;99.90;;;;;;5052823;28;19924;-73
2022/10/23 01:12:04;;;;;;;;;;;11.20;99.90;;;;;;5028727;28;19993;-73
2022/10/23 01:14:50;;;;;;;;;;;11.10;99.90;;;;;;5035218;28;20227;-73
2022/10/23 01:17:42;;;;;;;;;;;11.10;99.90;;;;;;4956101;28;20179;-73
2022/10/23 01:20:46;;;;;;;;;;;11.10;99.90;;;;;;4960403;28;20088;-73
2022/10/23 01:23:31;;;;;;;;;;;11.10;99.90;;;;;;4931812;28;20308;-73
2022/10/23 01:26:24;;;;;;;;;;;11.10;99.90;;;;;;4954767;28;20174;-73
2022/10/23 01:29:20;;;;;;;;;;;11.10;99.90;;;;;;4940842;28;20286;-73
2022/10/23 01:32:16;;;;;;;;;;;11.10;99.90;;;;;;4961246;28;20189;-73
2022/10/23 01:34:56;;;;;;;;;;;11.10;99.90;;;;;;5017673;28;19947;-73
2022/10/23 01:37:25;;;;;;;;;;;11.20;99.90;;;;;;5037335;28;19935;-73
2022/10/23 01:39:54;;;;;;;;;;;11.10;99.90;;;;;;5053807;28;19969;-73
2022/10/23 01:42:27;;;;;;;;;;;11.10;99.90;;;;;;5053400;28;19935;-73
2022/10/23 01:44:57;;;;;;;;;;;11.10;99.90;;;;;;5053896;28;20437;-73
2022/10/23 01:47:26;;;;;;;;;;;11.00;99.90;;;;;;5040427;28;20549;-73
2022/10/23 01:49:52;;;;;;;;;;;11.00;99.90;;;;;;5053102;28;19925;-73
2022/10/23 01:52:18;;;;;;;;;;;11.00;99.90;;;;;;5055620;28;19920;-73
2022/10/23 01:54:51;;;;;;;;;;;11.00;99.90;;;;;;4974912;28;20916;-73
2022/10/23 01:57:19;;;;;;;;;;;11.00;99.90;;;;;;4960793;28;20772;-73
2022/10/23 01:59:48;;;;;;;;;;;11.00;99.90;;;;;;5029669;28;19931;-73
2022/10/23 02:02:39;;;;;;;;;;;11.00;99.90;;;;;;5027887;28;19920;-73
2022/10/23 02:05:16;;;;;;;;;;;11.00;99.90;;;;;;4947864;28;20344;-73
2022/10/23 02:07:45;;;;;;;;;;;11.00;99.90;;;;;;5029371;28;20303;-73
2022/10/23 02:10:12;;;;;;;;;;;11.00;99.90;;;;;;5054204;28;20056;-74
2022/10/23 02:12:41;;;;;;;;;;;10.90;99.90;;;;;;5050284;28;19917;-74
2022/10/23 02:15:19;;;;;;;;;;;11.00;99.90;;;;;;5067261;28;19985;-73
2022/10/23 02:17:54;;;;;;;;;;;10.80;99.90;;;;;;5032961;28;20339;-73
2022/10/23 02:20:27;;;;;;;;;;;10.90;99.90;;;;;;5035308;28;20011;-73
2022/10/23 02:22:59;;;;;;;;;;;10.90;99.90;;;;;;5033565;28;20411;-73
2022/10/23 02:25:35;;;;;;;;;;;10.90;99.90;;;;;;5016221;28;20217;-73
2022/10/23 02:28:04;;;;;;;;;;;10.90;99.90;;;;;;5015764;28;20451;-73
2022/10/23 02:30:29;;;;;;;;;;;10.90;99.90;;;;;;5016585;28;19928;-73
2022/10/23 02:32:56;;;;;;;;;;;10.90;99.90;;;;;;5018957;28;20319;-73
2022/10/23 02:35:22;;;;;;;;;;;10.80;99.90;;;;;;5016991;28;19924;-73
2022/10/23 02:37:52;;;;;;;;;;;10.80;99.90;;;;;;5016638;28;20258;-73
2022/10/23 02:40:18;;;;;;;;;;;10.80;99.90;;;;;;5020102;28;19931;-73
2022/10/23 02:42:53;;;;;;;;;;;10.80;99.90;;;;;;5014638;28;20325;-73
2022/10/23 02:45:31;;;;;;;;;;;10.80;99.90;;;;;;5017624;28;20074;-73
2022/10/23 02:48:03;;;;;;;;;;;10.80;99.90;;;;;;5090815;22;19922;-71
2022/10/23 02:50:47;;;;;;;;;;;10.80;99.90;;;;;;4976250;28;19922;-72
2022/10/23 02:53:16;;;;;;;;;;;10.80;99.90;;;;;;4982089;28;19930;-74
2022/10/23 02:55:51;;;;;;;;;;;10.80;99.90;;;;;;4969746;28;19922;-74
2022/10/23 02:58:28;;;;;;;;;;;10.80;99.90;;;;;;4960721;28;20521;-74
2022/10/23 03:01:01;;;;;;;;;;;10.80;99.90;;;;;;4959218;28;19933;-74
2022/10/23 03:03:32;;;;;;;;;;;10.70;99.90;;;;;;4956802;28;19918;-74
2022/10/23 03:05:57;;;;;;;;;;;10.80;99.90;;;;;;4964298;28;19996;-74
2022/10/23 03:08:23;;;;;;;;;;;10.80;99.90;;;;;;4953665;28;20672;-74
2022/10/23 03:10:50;;;;;;;;;;;10.80;99.90;;;;;;4940400;28;19931;-76
2022/10/23 03:13:16;;;;;;;;;;;10.80;99.90;;;;;;4948291;28;20399;-74
2022/10/23 03:15:42;;;;;;;;;;;10.80;99.90;;;;;;4951591;28;20264;-74
2022/10/23 03:18:07;;;;;;;;;;;10.80;99.90;;;;;;4963503;28;19987;-74
2022/10/23 03:20:33;;;;;;;;;;;10.80;99.90;;;;;;4955124;28;20038;-74
2022/10/23 03:22:58;;;;;;;;;;;10.80;99.90;;;;;;4954655;28;19926;-73
2022/10/23 03:25:24;;;;;;;;;;;10.80;99.90;;;;;;4957796;28;19953;-73
2022/10/23 03:27:50;;;;;;;;;;;10.80;99.90;;;;;;4957098;28;19929;-74
2022/10/23 03:30:15;;;;;;;;;;;10.80;99.90;;;;;;4961818;28;19922;-74
2022/10/23 03:32:41;;;;;;;;;;;10.80;99.90;;;;;;4956586;28;19926;-74
2022/10/23 03:35:07;;;;;;;;;;;10.80;99.90;;;;;;4958494;28;19926;-74
2022/10/23 03:37:32;;;;;;;;;;;10.80;99.90;;;;;;4943322;28;20546;-73
2022/10/23 03:39:58;;;;;;;;;;;10.80;99.90;;;;;;4955944;28;19918;-74
2022/10/23 03:42:23;;;;;;;;;;;10.80;99.90;;;;;;4956469;28;19924;-74
2022/10/23 03:44:49;;;;;;;;;;;10.80;99.90;;;;;;4946543;28;19984;-74
2022/10/23 03:47:15;;;;;;;;;;;10.80;99.90;;;;;;4937096;28;19929;-73
2022/10/23 03:49:40;;;;;;;;;;;10.90;99.90;;;;;;4937230;28;20024;-72
2022/10/23 03:52:06;;;;;;;;;;;10.90;99.90;;;;;;4944386;28;20423;-72
2022/10/23 03:54:32;;;;;;;;;;;10.90;99.90;;;;;;4946762;28;20356;-72
2022/10/23 03:56:58;;;;;;;;;;;10.90;99.90;;;;;;4944344;28;19984;-72
2022/10/23 03:59:24;;;;;;;;;;;10.90;99.90;;;;;;4942594;28;20064;-72
2022/10/23 04:01:50;;;;;;;;;;;10.90;99.90;;;;;;4940242;28;19952;-72
2022/10/23 04:04:16;;;;;;;;;;;10.90;99.90;;;;;;4945332;28;20339;-72
2022/10/23 04:06:41;;;;;;;;;;;10.90;99.90;;;;;;4943946;28;19925;-72
2022/10/23 04:09:07;;;;;;;;;;;10.90;99.90;;;;;;4948486;28;19926;-72
2022/10/23 04:11:33;;;;;;;;;;;10.90;99.90;;;;;;4944293;28;19964;-73
2022/10/23 04:13:58;;;;;;;;;;;10.90;99.90;;;;;;4945293;28;20289;-72
2022/10/23 04:16:24;;;;;;;;;;;10.90;99.90;;;;;;4942499;28;19980;-72
2022/10/23 04:18:50;;;;;;;;;;;10.80;99.90;;;;;;4946243;28;19918;-72
2022/10/23 04:21:16;;;;;;;;;;;10.90;99.90;;;;;;4945323;28;20001;-72
2022/10/23 04:23:41;;;;;;;;;;;10.90;99.90;;;;;;4945786;28;19926;-72
2022/10/23 04:26:07;;;;;;;;;;;10.90;99.90;;;;;;4946795;28;19938;-72
2022/10/23 04:28:32;;;;;;;;;;;10.90;99.90;;;;;;4950958;28;19917;-72
2022/10/23 04:30:58;;;;;;;;;;;10.80;99.90;;;;;;4945309;28;19991;-72
2022/10/23 04:33:24;;;;;;;;;;;10.90;99.90;;;;;;4944245;28;19956;-72
2022/10/23 04:35:49;;;;;;;;;;;10.90;99.90;;;;;;4961625;28;19993;-72
2022/10/23 04:38:15;;;;;;;;;;;10.90;99.90;;;;;;4949966;28;19940;-72
2022/10/23 04:40:41;;;;;;;;;;;10.80;99.90;;;;;;4948493;28;19918;-72
2022/10/23 04:43:06;;;;;;;;;;;10.80;99.90;;;;;;4950933;28;19929;-72
2022/10/23 04:45:32;;;;;;;;;;;10.80;99.90;;;;;;4949768;28;20208;-72
2022/10/23 04:47:57;;;;;;;;;;;10.80;99.90;;;;;;4948791;28;19926;-72
2022/10/23 04:50:23;;;;;;;;;;;10.80;99.90;;;;;;4946632;28;19957;-74
2022/10/23 04:52:52;;;;;;;;;;;10.80;99.90;;;;;;4946360;28;19917;-75
2022/10/23 04:55:18;;;;;;;;;;;10.80;99.90;;;;;;4949646;28;20736;-75
2022/10/23 04:57:43;;;;;;;;;;;10.80;99.90;;;;;;4944126;28;20020;-72
2022/10/23 05:00:10;;;;;;;;;;;10.80;99.90;;;;;;4961950;28;19933;-72
2022/10/23 05:02:36;;;;;;;;;;;10.80;99.90;;;;;;4950921;28;19988;-72
2022/10/23 05:05:02;;;;;;;;;;;10.80;99.90;;;;;;4955128;28;20025;-72
2022/10/23 05:07:27;;;;;;;;;;;10.90;99.90;;;;;;4950642;28;19930;-72
2022/10/23 05:09:53;;;;;;;;;;;10.80;99.90;;;;;;4969501;28;19965;-72
2022/10/23 05:12:19;;;;;;;;;;;10.90;99.90;;;;;;4949291;28;19965;-72
2022/10/23 05:14:45;;;;;;;;;;;10.80;99.90;;;;;;4950988;28;19926;-72
2022/10/23 05:17:13;;;;;;;;;;;10.80;99.90;;;;;;4946333;28;20161;-72
2022/10/23 05:19:42;;;;;;;;;;;10.80;99.90;;;;;;4950515;28;19926;-72
2022/10/23 05:22:08;;;;;;;;;;;10.80;99.90;;;;;;4950165;28;20268;-72
2022/10/23 05:24:33;;;;;;;;;;;10.80;99.90;;;;;;4951817;28;20357;-72
2022/10/23 05:26:59;;;;;;;;;;;10.80;99.90;;;;;;4949399;28;19939;-72
2022/10/23 05:29:25;;;;;;;;;;;10.80;99.90;;;;;;4953305;28;19926;-72
2022/10/23 05:31:52;;;;;;;;;;;10.90;99.90;;;;;;4947409;28;20517;-72
2022/10/23 05:34:19;;;;;;;;;;;10.80;99.90;;;;;;4947527;28;20046;-72
2022/10/23 05:36:45;;;;;;;;;;;10.90;99.90;;;;;;4949900;28;20391;-72
2022/10/23 05:39:11;;;;;;;;;;;10.90;99.90;;;;;;4948042;28;19926;-72
2022/10/23 05:41:36;;;;;;;;;;;10.80;99.90;;;;;;4947759;28;19937;-72
2022/10/23 05:44:02;;;;;;;;;;;10.90;99.90;;;;;;4947398;28;20012;-72
2022/10/23 05:46:28;;;;;;;;;;;10.80;99.90;;;;;;4952326;28;19926;-72
2022/10/23 05:48:53;;;;;;;;;;;10.80;99.90;;;;;;4953422;28;19949;-72
2022/10/23 05:51:21;;;;;;;;;;;10.80;99.90;;;;;;4946798;28;20688;-72
2022/10/23 05:53:47;;;;;;;;;;;10.80;99.90;;;;;;4949562;28;19968;-72
2022/10/23 05:56:13;;;;;;;;;;;10.80;99.90;;;;;;4946976;28;19929;-72
2022/10/23 05:58:38;;;;;;;;;;;10.80;99.90;;;;;;4950424;28;19921;-72
2022/10/23 06:01:08;;;;;;;;;;;10.80;99.90;;;;;;4949711;28;20026;-73
2022/10/23 06:03:34;;;;;;;;;;;10.80;99.90;;;;;;4946115;28;20301;-72
2022/10/23 06:06:00;;;;;;;;;;;10.80;99.90;;;;;;4948548;28;20114;-72
2022/10/23 06:08:26;;;;;;;;;;;10.80;99.90;;;;;;4948924;28;19964;-72
2022/10/23 06:10:51;;;;;;;;;;;10.80;99.90;;;;;;4950066;28;20376;-72
2022/10/23 06:13:17;;;;;;;;;;;10.80;99.90;;;;;;4949842;28;20348;-72
2022/10/23 06:15:43;;;;;;;;;;;10.80;99.90;;;;;;4952781;28;19925;-72
2022/10/23 06:18:08;;;;;;;;;;;10.80;99.90;;;;;;4950355;28;20003;-72
2022/10/23 06:20:35;;;;;;;;;;;10.80;99.90;;;;;;4952542;28;20297;-72
2022/10/23 06:23:01;;;;;;;;;;;10.80;99.90;;;;;;4955252;28;19921;-72
2022/10/23 06:25:27;;;;;;;;;;;10.80;99.90;;;;;;4952408;28;19922;-72
2022/10/23 06:27:52;;;;;;;;;;;10.80;99.90;;;;;;4955546;28;19925;-72
2022/10/23 06:30:18;;;;;;;;;;;10.80;99.90;;;;;;4972047;28;20405;-72
2022/10/23 06:32:43;;;;;;;;;;;10.80;99.90;;;;;;4949568;28;19926;-72
2022/10/23 06:35:09;;;;;;;;;;;10.80;99.90;;;;;;4955872;28;19929;-72
2022/10/23 06:37:35;;;;;;;;;;;10.80;99.90;;;;;;4957583;28;19926;-72
2022/10/23 06:40:00;;;;;;;;;;;10.90;99.90;;;;;;4952960;28;19929;-72
2022/10/23 06:42:26;;;;;;;;;;;10.80;99.90;;;;;;4951624;28;20367;-72
2022/10/23 06:44:51;;;;;;;;;;;10.80;99.90;;;;;;4951832;28;19930;-72
2022/10/23 06:47:17;;;;;;;;;;;10.90;99.90;;;;;;4949424;28;19941;-72
2022/10/23 06:49:43;;;;;;;;;;;10.90;99.90;;;;;;4948604;28;20576;-73
2022/10/23 06:52:08;;;;;;;;;;;10.90;99.90;;;;;;4950707;28;20296;-72
2022/10/23 06:54:34;;;;;;;;;;;10.90;99.90;;;;;;4953924;28;20475;-72
2022/10/23 06:56:59;;;;;;;;;;;10.90;99.90;;;;;;4953129;28;20064;-72
2022/10/23 06:59:25;;;;;;;;;;;11.00;99.90;;;;;;5035558;28;19948;-72
2022/10/23 07:01:50;;;;;;;;;;;11.00;99.90;;;;;;4947848;28;20211;-72
2022/10/23 07:04:16;;;;;;;;;;;11.00;99.90;;;;;;4956633;28;20056;-72
2022/10/23 07:06:42;;;;;;;;;;;11.10;99.90;;;;;;4947446;28;19969;-72
2022/10/23 07:09:08;;;;;;;;;;;11.00;99.90;;;;;;4949542;28;19918;-72
2022/10/23 07:11:33;;;;;;;;;;;11.10;99.90;;;;;;4948671;28;20403;-73
2022/10/23 07:13:59;;;;;;;;;;;11.10;99.90;;;;;;4965497;28;20504;-72
2022/10/23 07:16:25;;;;;;;;;;;11.10;99.90;;;;;;4954572;28;19933;-72
2022/10/23 07:18:58;;;;;;;;;;;11.20;99.90;;;;;;4950026;28;19987;-72
2022/10/23 07:21:25;;;;;;;;;;;11.20;99.90;;;;;;4949119;28;19918;-72
2022/10/23 07:23:50;;;;;;;;;;;11.20;99.90;;;;;;4953458;28;20423;-72
2022/10/23 07:26:16;;;;;;;;;;;11.20;99.90;;;;;;4954469;28;19928;-72
2022/10/23 07:28:42;;;;;;;;;;;11.30;99.90;;;;;;4953786;28;19927;-72
2022/10/23 07:31:08;;;;;;;;;;;11.30;99.90;;;;;;4950765;28;19969;-72
2022/10/23 07:33:34;;;;;;;;;;;11.20;99.90;;;;;;4944701;28;19926;-72
2022/10/23 07:36:02;;;;;;;;;;;11.40;99.90;;;;;;4951460;28;19929;-72
2022/10/23 07:38:28;;;;;;;;;;;11.40;99.90;;;;;;4953832;28;19922;-72
2022/10/23 07:40:56;;;;;;;;;;;11.40;99.90;;;;;;4952895;28;19932;-73
2022/10/23 07:43:22;;;;;;;;;;;11.40;99.90;;;;;;4948489;28;19923;-72
2022/10/23 07:45:48;;;;;;;;;;;11.50;99.90;;;;;;4933949;28;19996;-73
2022/10/23 07:48:14;;;;;;;;;;;11.50;99.90;;;;;;4937055;28;20052;-72
2022/10/23 07:50:40;;;;;;;;;;;11.50;99.90;;;;;;4947304;28;20305;-72
2022/10/23 07:53:05;;;;;;;;;;;11.60;99.90;;;;;;4948688;28;20318;-72
2022/10/23 07:55:31;;;;;;;;;;;11.60;99.90;;;;;;4949615;28;20029;-72
2022/10/23 07:57:57;;;;;;;;;;;11.60;99.90;;;;;;4953901;28;19918;-72
2022/10/23 08:00:22;;;;;;;;;;;11.60;99.90;;;;;;4950980;28;20365;-74
2022/10/23 08:02:48;;;;;;;;;;;11.70;99.90;;;;;;4926108;28;20047;-74
2022/10/23 08:05:13;;;;;;;;;;;11.70;99.90;;;;;;4927225;28;19926;-74
2022/10/23 08:07:39;;;;;;;;;;;11.70;99.90;;;;;;4929585;28;19984;-74
2022/10/23 08:10:05;;;;;;;;;;;11.80;99.90;;;;;;4925499;28;19961;-74
2022/10/23 08:12:30;;;;;;;;;;;11.80;99.90;;;;;;4921130;28;19918;-74
2022/10/23 08:14:56;;;;;;;;;;;11.90;99.90;;;;;;4923821;28;20401;-77
2022/10/23 08:17:25;;;;;;;;;;;11.90;99.90;;;;;;4926271;28;19996;-76
2022/10/23 08:19:51;;;;;;;;;;;11.90;99.90;;;;;;4927477;28;19926;-75
2022/10/23 08:22:16;;;;;;;;;;;12.00;99.90;;;;;;4923556;28;21576;-75
2022/10/23 08:24:42;;;;;;;;;;;12.00;99.90;;;;;;4925261;28;21935;-77
2022/10/23 08:27:07;;;;;;;;;;;12.00;99.90;;;;;;4917761;28;19928;-77
2022/10/23 08:29:33;;;;;;;;;;;12.10;99.90;;;;;;4927200;28;20435;-75
2022/10/23 08:31:58;;;;;;;;;;;12.10;99.90;;;;;;4920726;28;20456;-75
2022/10/23 08:34:24;;;;;;;;;;;12.20;99.90;;;;;;4927114;28;19970;-75
2022/10/23 08:36:50;;;;;;;;;;;12.20;99.90;;;;;;4928093;28;19964;-75
2022/10/23 08:39:15;;;;;;;;;;;12.20;99.90;;;;;;4927264;28;20271;-74
2022/10/23 08:41:42;;;;;;;;;;;12.30;99.90;;;;;;4937324;28;20494;-74
2022/10/23 08:44:07;;;;;;;;;;;12.30;99.90;;;;;;4938792;28;20414;-74
2022/10/23 08:46:36;;;;;;;;;;;12.40;99.90;;;;;;4934602;28;20042;-74
2022/10/23 08:49:13;;;;;;;;;;;12.40;99.90;;;;;;5048035;22;20454;-75
2022/10/23 08:51:43;;;;;;;;;;;12.50;99.90;;;;;;5044023;28;20811;-74
2022/10/23 08:54:29;;;;;;;;;;;12.50;99.90;;;;;;5036110;28;19916;-75
2022/10/23 08:56:59;;;;;;;;;;;12.50;99.90;;;;;;5026811;28;19923;-75
2022/10/23 08:59:38;;;;;;;;;;;12.60;99.90;;;;;;5036896;28;19955;-75
2022/10/23 09:02:16;;;;;;;;;;;12.60;99.90;;;;;;5035513;28;20158;-75
2022/10/23 09:04:43;;;;;;;;;;;12.60;99.90;;;;;;5042890;28;19916;-75
2022/10/23 09:07:25;;;;;;;;;;;12.70;99.90;;;;;;5038928;28;19948;-75
2022/10/23 09:09:50;;;;;;;;;;;12.70;99.90;;;;;;5036943;28;19920;-76
2022/10/23 09:12:24;;;;;;;;;;;12.80;99.90;;;;;;5043217;28;19990;-75
2022/10/23 09:15:02;;;;;;;;;;;12.90;99.90;;;;;;5038874;28;20016;-75
2022/10/23 09:17:28;;;;;;;;;;;12.90;99.90;;;;;;5034901;28;19999;-75
2022/10/23 09:20:12;;;;;;;;;;;12.90;99.90;;;;;;5037634;28;20003;-76
2022/10/23 09:22:38;;;;;;;;;;;13.00;99.90;;;;;;5049264;28;19935;-75
2022/10/23 09:25:07;;;;;;;;;;;13.10;99.90;;;;;;5033644;28;19921;-76
2022/10/23 09:27:33;;;;;;;;;;;13.10;99.90;;;;;;5039104;28;20134;-76
2022/10/23 09:29:58;;;;;;;;;;;13.20;99.90;;;;;;5038897;28;19960;-76
2022/10/23 09:32:34;;;;;;;;;;;13.20;99.90;;;;;;5029367;28;20364;-75
2022/10/23 09:34:59;;;;;;;;;;;13.30;99.90;;;;;;5041614;28;19917;-76
2022/10/23 09:37:26;;;;;;;;;;;13.30;99.90;;;;;;5026823;28;20357;-76
2022/10/23 09:40:01;;;;;;;;;;;13.40;99.90;;;;;;5033861;28;20455;-75
2022/10/23 09:42:27;;;;;;;;;;;13.40;99.90;;;;;;5039781;28;19920;-75
2022/10/23 09:44:56;;;;;;;;;;;13.50;99.90;;;;;;5021537;28;19927;-75
2022/10/23 09:47:23;;;;;;;;;;;13.50;99.90;;;;;;5042513;28;20355;-75
2022/10/23 09:49:50;;;;;;;;;;;13.60;99.90;;;;;;5030101;28;20007;-76
2022/10/23 09:52:16;;;;;;;;;;;13.60;99.90;;;;;;5040296;28;20079;-76
2022/10/23 09:55:01;;;;;;;;;;;13.70;99.90;;;;;;5053011;28;20234;-75
2022/10/23 09:57:32;;;;;;;;;;;13.70;99.90;;;;;;5041353;28;19928;-75
2022/10/23 10:00:00;;;;;;;;;;;13.70;99.90;;;;;;5039484;28;20527;-75
2022/10/23 10:02:27;;;;;;;;;;;13.80;99.90;;;;;;5036759;28;20234;-75
2022/10/23 10:04:53;;;;;;;;;;;13.80;99.90;;;;;;5037147;28;19921;-77
2022/10/23 10:07:20;;;;;;;;;;;13.90;99.90;;;;;;5042159;28;20378;-76
2022/10/23 10:09:46;;;;;;;;;;;13.90;99.90;;;;;;5029396;28;19917;-74
2022/10/23 10:12:24;;;;;;;;;;;14.00;99.90;;;;;;5051020;28;20369;-74
2022/10/23 10:15:14;;;;;;;;;;;14.00;99.90;;;;;;5048458;28;20026;-76
2022/10/23 10:17:46;;;;;;;;;;;14.10;99.90;;;;;;5052623;28;19931;-74
2022/10/23 10:20:17;;;;;;;;;;;14.20;99.90;;;;;;5051258;28;19916;-74
2022/10/23 10:22:56;;;;;;;;;;;14.20;99.90;;;;;;5054806;28;19923;-75
2022/10/23 10:25:42;;;;;;;;;;;14.30;99.90;;;;;;5051468;28;19916;-75
2022/10/23 10:28:22;;;;;;;;;;;14.40;99.90;;;;;;5022735;28;19940;-74
2022/10/23 10:30:55;;;;;;;;;;;14.40;99.90;;;;;;4971326;28;20297;-76
2022/10/23 10:33:27;;;;;;;;;;;14.50;99.90;;;;;;4965114;28;20714;-75
2022/10/23 10:35:55;;;;;;;;;;;14.60;99.90;;;;;;5033348;28;19963;-75
2022/10/23 10:38:24;;;;;;;;;;;14.60;99.90;;;;;;5031719;28;20008;-74
2022/10/23 10:40:59;;;;;;;;;;;14.70;99.90;;;;;;5034437;28;19925;-74
2022/10/23 10:43:42;;;;;;;;;;;14.70;99.90;;;;;;5023356;28;19920;-75
2022/10/23 10:46:11;;;;;;;;;;;14.80;99.90;;;;;;5028390;28;20248;-74
2022/10/23 10:48:42;;;;;;;;;;;14.80;99.90;;;;;;5033650;28;19920;-74
2022/10/23 10:51:12;;;;;;;;;;;14.90;99.90;;;;;;5006333;28;19943;-75
2022/10/23 10:54:04;;;;;;;;;;;14.90;99.90;;;;;;5029478;28;19932;-75
2022/10/23 10:56:32;;;;;;;;;;;15.00;99.90;;;;;;5004204;28;19970;-74
2022/10/23 10:59:02;;;;;;;;;;;15.00;99.90;;;;;;5031270;28;20111;-74
2022/10/23 11:01:34;;;;;;;;;;;15.10;99.90;;;;;;5035388;28;19917;-75
2022/10/23 11:04:05;;;;;;;;;;;15.10;99.90;;;;;;5026841;28;19920;-74
2022/10/23 11:06:34;;;;;;;;;;;15.10;99.90;;;;;;5038094;28;19978;-74
2022/10/23 11:09:03;;;;;;;;;;;15.20;99.90;;;;;;5033430;28;19928;-74
2022/10/23 11:11:34;;;;;;;;;;;15.20;99.90;;;;;;5035230;28;19929;-74
2022/10/23 11:14:00;;;;;;;;;;;15.20;99.90;;;;;;5042025;28;20812;-75
2022/10/23 11:16:28;;;;;;;;;;;15.20;99.90;;;;;;5033818;28;20378;-75
2022/10/23 11:19:02;;;;;;;;;;;15.20;99.90;;;;;;5037299;28;20369;-74
2022/10/23 11:21:34;;;;;;;;;;;15.30;99.90;;;;;;5041560;28;19925;-75
2022/10/23 11:24:13;;;;;;;;;;;15.30;99.90;;;;;;5034355;28;19920;-74
2022/10/23 11:26:58;;;;;;;;;;;15.30;99.90;;;;;;5042444;28;19926;-74
2022/10/23 11:29:42;;;;;;;;;;;15.30;99.90;;;;;;5034832;28;19920;-74
2022/10/23 11:32:16;;;;;;;;;;;15.40;99.90;;;;;;5035171;28;19950;-74
2022/10/23 11:35:01;;;;;;;;;;;15.40;99.90;;;;;;5031738;28;20573;-75
2022/10/23 11:37:26;;;;;;;;;;;15.40;99.90;;;;;;5035842;28;20126;-74
2022/10/23 11:39:57;;;;;;;;;;;15.40;99.90;;;;;;5038654;28;19999;-74
2022/10/23 11:42:29;;;;;;;;;;;15.40;99.90;;;;;;5044546;28;19967;-75
2022/10/23 11:44:54;;;;;;;;;;;15.40;99.90;;;;;;5035440;28;19982;-75
2022/10/23 11:47:30;;;;;;;;;;;15.40;99.90;;;;;;5048546;28;19925;-75
2022/10/23 11:50:05;;;;;;;;;;;15.40;99.90;;;;;;5039726;28;20098;-76
2022/10/23 11:52:31;;;;;;;;;;;15.40;99.90;;;;;;5037475;28;19928;-75
2022/10/23 11:55:16;;;;;;;;;;;15.40;99.90;;;;;;5047216;28;19924;-75
2022/10/23 11:57:43;;;;;;;;;;;15.40;99.90;;;;;;5033431;28;20151;-76
2022/10/23 12:00:21;;;;;;;;;;;15.40;99.90;;;;;;5046707;28;19917;-75
2022/10/23 12:02:51;;;;;;;;;;;15.40;99.90;;;;;;5047797;28;19928;-76
2022/10/23 12:05:25;;;;;;;;;;;15.40;99.90;;;;;;5035659;28;20282;-79
2022/10/23 12:07:55;;;;;;;;;;;15.40;99.90;;;;;;5035016;28;20015;-80
2022/10/23 12:10:25;;;;;;;;;;;15.40;99.90;;;;;;5037939;28;19920;-77
2022/10/23 12:13:14;;;;;;;;;;;15.40;99.90;;;;;;5039509;28;19921;-77
2022/10/23 12:15:42;;;;;;;;;;;15.40;99.90;;;;;;4995102;28;20250;-77
2022/10/23 12:18:15;;;;;;;;;;;15.50;99.90;;;;;;5025050;28;20362;-76
2022/10/23 12:20:46;;;;;;;;;;;15.40;99.90;;;;;;5044985;28;19927;-76
2022/10/23 12:23:15;;;;;;;;;;;15.40;99.90;;;;;;5045401;28;19921;-77
2022/10/23 12:25:50;;;;;;;;;;;15.40;99.90;;;;;;5040663;28;19991;-75
2022/10/23 12:28:27;;;;;;;;;;;15.40;99.90;;;;;;5031886;28;19928;-75
2022/10/23 12:30:55;;;;;;;;;;;15.40;99.90;;;;;;5034209;28;20258;-76
2022/10/23 12:33:28;;;;;;;;;;;15.40;99.90;;;;;;5038022;28;20747;-75
2022/10/23 12:36:03;;;;;;;;;;;15.40;99.90;;;;;;5018792;28;19917;-75
2022/10/23 12:38:29;;;;;;;;;;;15.50;99.90;;;;;;5041890;28;19923;-75
2022/10/23 12:41:13;;;;;;;;;;;15.50;99.90;;;;;;5042540;28;19971;-75
2022/10/23 12:43:40;;;;;;;;;;;15.50;99.90;;;;;;5040758;28;19924;-75
2022/10/23 12:46:08;;;;;;;;;;;15.50;99.90;;;;;;5045077;28;19999;-75
2022/10/23 12:48:34;;;;;;;;;;;15.50;99.90;;;;;;5041200;28;20058;-75
2022/10/23 12:51:00;;;;;;;;;;;15.50;99.90;;;;;;5048023;28;20007;-76
2022/10/23 12:53:26;;;;;;;;;;;15.50;99.90;;;;;;5041923;28;19916;-75
2022/10/23 12:55:56;;;;;;;;;;;15.40;99.90;;;;;;5042898;28;19927;-75
2022/10/23 12:58:28;;;;;;;;;;;15.40;99.90;;;;;;5041398;28;19942;-75
2022/10/23 13:00:55;;;;;;;;;;;15.40;99.90;;;;;;5055036;28;20027;-75
2022/10/23 13:03:22;;;;;;;;;;;15.40;99.90;;;;;;5051109;28;20154;-75
2022/10/23 13:05:52;;;;;;;;;;;15.40;99.90;;;;;;5045663;28;20137;-75
2022/10/23 13:08:18;;;;;;;;;;;15.40;99.90;;;;;;5020559;28;19932;-75
2022/10/23 13:10:45;;;;;;;;;;;15.40;99.90;;;;;;5026560;28;20290;-75
2022/10/23 13:13:11;;;;;;;;;;;15.40;99.90;;;;;;5040688;28;19967;-75
2022/10/23 13:15:37;;;;;;;;;;;15.50;99.90;;;;;;5042302;28;20339;-76
2022/10/23 13:18:03;;;;;;;;;;;15.40;99.90;;;;;;5040179;28;19943;-75
2022/10/23 13:20:34;;;;;;;;;;;15.40;99.90;;;;;;5039712;28;20246;-76
2022/10/23 13:22:59;;;;;;;;;;;15.40;99.90;;;;;;5047466;28;20382;-76
2022/10/23 13:25:30;;;;;;;;;;;15.40;99.90;;;;;;5049824;28;19954;-76
2022/10/23 13:28:07;;;;;;;;;;;15.40;99.90;;;;;;5038615;28;19921;-76
2022/10/23 13:30:36;;;;;;;;;;;15.50;99.90;;;;;;5041028;28;19946;-75
2022/10/23 13:33:20;;;;;;;;;;;15.50;99.90;;;;;;5042018;28;20282;-76
2022/10/23 13:36:18;;;;;;;;;;;15.40;99.90;;;;;;5053344;28;19916;-75
2022/10/23 13:39:04;;;;;;;;;;;15.50;99.90;;;;;;5013954;28;20354;-75
2022/10/23 13:41:35;;;;;;;;;;;15.50;99.90;;;;;;5032406;28;19963;-76
2022/10/23 13:44:01;;;;;;;;;;;15.50;99.90;;;;;;5038062;28;20267;-76
2022/10/23 13:46:26;;;;;;;;;;;15.50;99.90;;;;;;5049449;28;19935;-75
2022/10/23 13:48:52;;;;;;;;;;;15.50;99.90;;;;;;5046902;28;19920;-75
2022/10/23 13:51:19;;;;;;;;;;;15.50;99.90;;;;;;5056647;28;20428;-75
2022/10/23 13:53:45;;;;;;;;;;;15.60;99.90;;;;;;5037912;28;19916;-76
2022/10/23 13:56:11;;;;;;;;;;;15.60;99.90;;;;;;5055304;28;20008;-75
2022/10/23 13:58:37;;;;;;;;;;;15.60;99.90;;;;;;5043420;28;19917;-75
2022/10/23 14:01:03;;;;;;;;;;;15.60;99.90;;;;;;5036134;28;19970;-76
2022/10/23 14:03:28;;;;;;;;;;;15.60;99.90;;;;;;5038961;28;19920;-76
2022/10/23 14:05:54;;;;;;;;;;;15.60;99.90;;;;;;5053365;28;19916;-75
2022/10/23 14:08:19;;;;;;;;;;;15.60;99.90;;;;;;5052449;28;19920;-76
2022/10/23 14:10:45;;;;;;;;;;;15.60;99.90;;;;;;5035558;28;19943;-75
2022/10/23 14:13:11;;;;;;;;;;;15.60;99.90;;;;;;5049433;28;20305;-75
2022/10/23 14:15:36;;;;;;;;;;;15.60;99.90;;;;;;5050256;28;20007;-75
2022/10/23 14:18:02;;;;;;;;;;;15.60;99.90;;;;;;5050674;28;20556;-75
2022/10/23 14:20:27;;;;;;;;;;;15.50;99.90;;;;;;5044146;28;19924;-75
2022/10/23 14:22:53;;;;;;;;;;;15.50;99.90;;;;;;5045187;28;19963;-75
2022/10/23 14:25:19;;;;;;;;;;;15.50;99.90;;;;;;5044872;28;20323;-74
2022/10/23 14:27:44;;;;;;;;;;;15.60;99.90;;;;;;5057061;28;19924;-75